sensor_id;sensor_type;location;lat;lon;timestamp;pressure;altitude;pressure_sealevel;temperature;humidity
21824;BME280;11074;48.596;9.238;2023-11-19T00:00:43;98165.72;;;8.92;100.00
21824;BME280;11074;48.596;9.238;2023-11-19T00:03:08;98161.28;;;8.97;100.00
21824;BME280;11074;48.596;9.238;2023-11-19T00:05:36;98166.88;;;8.96;100.00
21824;BME280;11074;48.596;9.238;2023-11-19T00:08:02;98172.03;;;9.02;100.00
21824;BME280;11074;48.596;9.238;2023-11-19T00:10:27;98179.13;;;8.97;100.00
21824;BME280;11074;48.596;9.238;2023-11-19T00:12:53;98173.09;;;9.01;100.00
21824;BME280;11074;48.596;9.238;2023-11-19T00:15:19;98177.88;;;8.99;100.00
21824;BME280;11074;48.596;9.238;2023-11-19T00:17:46;98167.03;;;9.06;100.00
21824;BME280;11074;48.596;9.238;2023-11-19T00:20:14;98171.81;;;9.04;100.00
21824;BME280;11074;48.596;9.238;2023-11-19T00:22:40;98158.69;;;9.02;100.00
21824;BME280;11074;48.596;9.238;2023-11-19T00:25:08;98149.25;;;8.95;100.00
21824;BME280;11074;48.596;9.238;2023-11-19T00:27:34;98151.44;;;8.98;100.00
21824;BME280;11074;48.596;9.238;2023-11-19T00:29:59;98147.56;;;9.05;100.00
21824;BME280;11074;48.596;9.238;2023-11-19T00:32:25;98150.56;;;9.09;100.00
21824;BME280;11074;48.596;9.238;2023-11-19T00:34:51;98152.00;;;9.00;100.00
21824;BME280;11074;48.596;9.238;2023-11-19T00:37:17;98156.53;;;8.99;100.00
21824;BME280;11074;48.596;9.238;2023-11-19T00:39:43;98156.91;;;9.08;100.00
21824;BME280;11074;48.596;9.238;2023-11-19T00:42:10;98151.59;;;9.08;100.00
21824;BME280;11074;48.596;9.238;2023-11-19T00:44:36;98143.66;;;9.13;100.00
21824;BME280;11074;48.596;9.238;2023-11-19T00:47:02;98139.97;;;9.14;100.00
21824;BME280;11074;48.596;9.238;2023-11-19T00:49:28;98143.19;;;9.16;100.00
21824;BME280;11074;48.596;9.238;2023-11-19T00:51:54;98129.63;;;9.18;100.00
21824;BME280;11074;48.596;9.238;2023-11-19T00:54:19;98120.81;;;9.17;100.00
21824;BME280;11074;48.596;9.238;2023-11-19T00:56:45;98127.38;;;9.09;100.00
21824;BME280;11074;48.596;9.238;2023-11-19T00:59:11;98118.88;;;9.12;100.00
21824;BME280;11074;48.596;9.238;2023-11-19T01:01:37;98114.91;;;9.15;100.00
21824;BME280;11074;48.596;9.238;2023-11-19T01:04:03;98117.88;;;9.19;100.00
21824;BME280;11074;48.596;9.238;2023-11-19T01:06:32;98111.25;;;9.21;100.00
21824;BME280;11074;48.596;9.238;2023-11-19T01:08:58;98109.31;;;9.17;100.00
21824;BME280;11074;48.596;9.238;2023-11-19T01:11:25;98099.47;;;9.17;100.00
21824;BME280;11074;48.596;9.238;2023-11-19T01:13:52;98086.47;;;9.21;100.00
21824;BME280;11074;48.596;9.238;2023-11-19T01:16:18;98090.50;;;9.23;100.00
21824;BME280;11074;48.596;9.238;2023-11-19T01:18:47;98091.63;;;9.27;100.00
21824;BME280;11074;48.596;9.238;2023-11-19T01:21:14;98091.06;;;9.25;100.00
21824;BME280;11074;48.596;9.238;2023-11-19T01:23:41;98085.47;;;9.27;100.00
21824;BME280;11074;48.596;9.238;2023-11-19T01:26:09;98089.50;;;9.29;100.00
21824;BME280;11074;48.596;9.238;2023-11-19T01:28:36;98087.97;;;9.33;100.00
21824;BME280;11074;48.596;9.238;2023-11-19T01:31:02;98077.31;;;9.33;100.00
21824;BME280;11074;48.596;9.238;2023-11-19T01:33:29;98069.84;;;9.35;100.00
21824;BME280;11074;48.596;9.238;2023-11-19T01:35:55;98063.53;;;9.41;100.00
21824;BME280;11074;48.596;9.238;2023-11-19T01:38:21;98053.84;;;9.35;100.00
21824;BME280;11074;48.596;9.238;2023-11-19T01:40:47;98052.53;;;9.38;100.00
21824;BME280;11074;48.596;9.238;2023-11-19T01:43:30;98052.44;;;9.49;100.00
21824;BME280;11074;48.596;9.238;2023-11-19T01:45:56;98040.97;;;9.49;100.00
21824;BME280;11074;48.596;9.238;2023-11-19T01:48:22;98045.03;;;9.56;100.00
21824;BME280;11074;48.596;9.238;2023-11-19T01:50:48;98057.34;;;9.57;100.00
21824;BME280;11074;48.596;9.238;2023-11-19T01:53:13;98060.88;;;9.63;100.00
21824;BME280;11074;48.596;9.238;2023-11-19T01:55:39;98049.41;;;9.62;100.00
21824;BME280;11074;48.596;9.238;2023-11-19T01:58:07;98059.09;;;9.68;100.00
21824;BME280;11074;48.596;9.238;2023-11-19T02:00:33;98057.47;;;9.67;100.00
21824;BME280;11074;48.596;9.238;2023-11-19T02:02:59;98052.44;;;9.71;100.00
21824;BME280;11074;48.596;9.238;2023-11-19T02:05:25;98052.72;;;9.74;100.00
21824;BME280;11074;48.596;9.238;2023-11-19T02:07:50;98052.00;;;9.79;100.00
21824;BME280;11074;48.596;9.238;2023-11-19T02:10:17;98052.28;;;9.83;100.00
21824;BME280;11074;48.596;9.238;2023-11-19T02:12:45;98042.44;;;9.83;100.00
21824;BME280;11074;48.596;9.238;2023-11-19T02:15:11;98030.38;;;9.81;100.00
21824;BME280;11074;48.596;9.238;2023-11-19T02:17:37;98037.63;;;9.85;100.00
21824;BME280;11074;48.596;9.238;2023-11-19T02:20:06;98037.91;;;9.84;100.00
21824;BME280;11074;48.596;9.238;2023-11-19T02:22:37;98044.91;;;9.90;100.00
21824;BME280;11074;48.596;9.238;2023-11-19T02:25:27;98050.25;;;9.90;100.00
21824;BME280;11074;48.596;9.238;2023-11-19T02:27:58;98043.84;;;9.91;100.00
21824;BME280;11074;48.596;9.238;2023-11-19T02:30:25;98048.63;;;9.89;100.00
21824;BME280;11074;48.596;9.238;2023-11-19T02:32:56;98037.69;;;9.90;100.00
21824;BME280;11074;48.596;9.238;2023-11-19T02:35:24;98040.06;;;9.87;100.00
21824;BME280;11074;48.596;9.238;2023-11-19T02:37:49;98037.09;;;9.83;100.00
21824;BME280;11074;48.596;9.238;2023-11-19T02:40:15;98037.69;;;9.90;100.00
21824;BME280;11074;48.596;9.238;2023-11-19T02:42:42;98024.91;;;9.92;100.00
21824;BME280;11074;48.596;9.238;2023-11-19T02:45:09;98021.94;;;9.89;100.00
21824;BME280;11074;48.596;9.238;2023-11-19T02:47:41;98032.94;;;9.92;100.00
21824;BME280;11074;48.596;9.238;2023-11-19T02:50:11;98025.69;;;9.93;100.00
21824;BME280;11074;48.596;9.238;2023-11-19T02:52:41;98032.13;;;9.92;100.00
21824;BME280;11074;48.596;9.238;2023-11-19T02:55:08;98026.50;;;9.93;100.00
21824;BME280;11074;48.596;9.238;2023-11-19T02:57:35;98033.44;;;9.89;100.00
21824;BME280;11074;48.596;9.238;2023-11-19T03:00:02;98039.69;;;10.00;100.00
21824;BME280;11074;48.596;9.238;2023-11-19T03:02:40;98035.94;;;10.01;100.00
21824;BME280;11074;48.596;9.238;2023-11-19T03:05:15;98040.28;;;10.07;100.00
21824;BME280;11074;48.596;9.238;2023-11-19T03:07:43;98028.84;;;10.11;100.00
21824;BME280;11074;48.596;9.238;2023-11-19T03:10:12;98025.69;;;10.14;100.00
21824;BME280;11074;48.596;9.238;2023-11-19T03:12:43;98020.28;;;10.09;100.00
21824;BME280;11074;48.596;9.238;2023-11-19T03:15:09;98028.06;;;10.11;100.00
21824;BME280;11074;48.596;9.238;2023-11-19T03:17:42;98029.44;;;10.13;100.00
21824;BME280;11074;48.596;9.238;2023-11-19T03:20:11;98035.84;;;10.12;100.00
21824;BME280;11074;48.596;9.238;2023-11-19T03:22:41;98049.53;;;10.21;100.00
21824;BME280;11074;48.596;9.238;2023-11-19T03:25:08;98043.38;;;10.20;100.00
21824;BME280;11074;48.596;9.238;2023-11-19T03:27:37;98036.44;;;10.19;100.00
21824;BME280;11074;48.596;9.238;2023-11-19T03:30:09;98038.06;;;10.20;100.00
21824;BME280;11074;48.596;9.238;2023-11-19T03:32:35;98043.13;;;10.22;100.00
21824;BME280;11074;48.596;9.238;2023-11-19T03:35:02;98039.94;;;10.25;100.00
21824;BME280;11074;48.596;9.238;2023-11-19T03:37:30;98049.31;;;10.27;100.00
21824;BME280;11074;48.596;9.238;2023-11-19T03:39:57;98043.97;;;10.27;100.00
21824;BME280;11074;48.596;9.238;2023-11-19T03:42:28;98036.78;;;10.28;100.00
21824;BME280;11074;48.596;9.238;2023-11-19T03:44:56;98042.22;;;10.38;100.00
21824;BME280;11074;48.596;9.238;2023-11-19T03:47:22;98044.66;;;10.40;100.00
21824;BME280;11074;48.596;9.238;2023-11-19T03:49:49;98036.16;;;10.48;100.00
21824;BME280;11074;48.596;9.238;2023-11-19T03:52:15;98031.84;;;10.42;100.00
21824;BME280;11074;48.596;9.238;2023-11-19T03:54:41;98032.66;;;10.42;100.00
21824;BME280;11074;48.596;9.238;2023-11-19T03:57:07;98034.25;;;10.43;100.00
21824;BME280;11074;48.596;9.238;2023-11-19T03:59:32;98027.31;;;10.42;100.00
21824;BME280;11074;48.596;9.238;2023-11-19T04:01:59;98027.03;;;10.44;100.00
21824;BME280;11074;48.596;9.238;2023-11-19T04:04:26;98032.94;;;10.46;100.00
21824;BME280;11074;48.596;9.238;2023-11-19T04:06:53;98044.69;;;10.45;100.00
21824;BME280;11074;48.596;9.238;2023-11-19T04:09:19;98031.31;;;10.45;100.00
21824;BME280;11074;48.596;9.238;2023-11-19T04:11:45;98020.91;;;10.43;100.00
21824;BME280;11074;48.596;9.238;2023-11-19T04:14:13;98018.50;;;10.47;100.00
21824;BME280;11074;48.596;9.238;2023-11-19T04:16:39;98012.34;;;10.46;100.00
21824;BME280;11074;48.596;9.238;2023-11-19T04:19:05;98000.09;;;10.50;100.00
21824;BME280;11074;48.596;9.238;2023-11-19T04:21:32;98007.34;;;10.55;100.00
21824;BME280;11074;48.596;9.238;2023-11-19T04:23:58;98010.53;;;10.52;100.00
21824;BME280;11074;48.596;9.238;2023-11-19T04:26:24;98025.06;;;10.61;100.00
21824;BME280;11074;48.596;9.238;2023-11-19T04:28:50;98036.06;;;10.64;100.00
21824;BME280;11074;48.596;9.238;2023-11-19T04:31:16;98037.09;;;10.63;100.00
21824;BME280;11074;48.596;9.238;2023-11-19T04:33:42;98014.09;;;10.62;100.00
21824;BME280;11074;48.596;9.238;2023-11-19T04:36:10;98031.25;;;10.66;100.00
21824;BME280;11074;48.596;9.238;2023-11-19T04:38:36;98048.09;;;10.67;100.00
21824;BME280;11074;48.596;9.238;2023-11-19T04:41:05;98051.63;;;10.72;100.00
21824;BME280;11074;48.596;9.238;2023-11-19T04:43:32;98053.75;;;10.75;100.00
21824;BME280;11074;48.596;9.238;2023-11-19T04:45:58;98053.75;;;10.75;100.00
21824;BME280;11074;48.596;9.238;2023-11-19T04:48:24;98050.34;;;10.80;100.00
21824;BME280;11074;48.596;9.238;2023-11-19T04:50:50;98044.97;;;10.75;100.00
21824;BME280;11074;48.596;9.238;2023-11-19T04:53:18;98046.59;;;10.81;100.00
21824;BME280;11074;48.596;9.238;2023-11-19T04:55:43;98051.16;;;10.80;100.00
21824;BME280;11074;48.596;9.238;2023-11-19T04:58:09;98053.81;;;10.80;100.00
21824;BME280;11074;48.596;9.238;2023-11-19T05:00:35;98055.19;;;10.83;100.00
21824;BME280;11074;48.596;9.238;2023-11-19T05:03:00;98052.78;;;10.86;100.00
21824;BME280;11074;48.596;9.238;2023-11-19T05:05:27;98056.50;;;10.80;100.00
21824;BME280;11074;48.596;9.238;2023-11-19T05:07:52;98063.97;;;10.83;100.00
21824;BME280;11074;48.596;9.238;2023-11-19T05:10:18;98052.75;;;10.81;100.00
21824;BME280;11074;48.596;9.238;2023-11-19T05:12:44;98064.56;;;10.85;100.00
21824;BME280;11074;48.596;9.238;2023-11-19T05:15:10;98062.38;;;10.82;100.00
21824;BME280;11074;48.596;9.238;2023-11-19T05:17:37;98052.19;;;10.79;100.00
21824;BME280;11074;48.596;9.238;2023-11-19T05:20:03;98047.91;;;10.78;100.00
21824;BME280;11074;48.596;9.238;2023-11-19T05:22:29;98045.72;;;10.75;100.00
21824;BME280;11074;48.596;9.238;2023-11-19T05:24:55;98055.91;;;10.78;100.00
21824;BME280;11074;48.596;9.238;2023-11-19T05:27:21;98052.22;;;10.84;100.00
21824;BME280;11074;48.596;9.238;2023-11-19T05:29:49;98042.59;;;10.83;100.00
21824;BME280;11074;48.596;9.238;2023-11-19T05:32:14;98041.81;;;10.83;100.00
21824;BME280;11074;48.596;9.238;2023-11-19T05:34:40;98048.19;;;10.82;100.00
21824;BME280;11074;48.596;9.238;2023-11-19T05:37:08;98053.84;;;10.85;100.00
21824;BME280;11074;48.596;9.238;2023-11-19T05:39:36;98056.78;;;10.84;100.00
21824;BME280;11074;48.596;9.238;2023-11-19T05:42:01;98060.53;;;10.83;100.00
21824;BME280;11074;48.596;9.238;2023-11-19T05:44:27;98050.38;;;10.85;100.00
21824;BME280;11074;48.596;9.238;2023-11-19T05:46:53;98054.41;;;10.87;100.00
21824;BME280;11074;48.596;9.238;2023-11-19T05:49:19;98061.59;;;10.87;100.00
21824;BME280;11074;48.596;9.238;2023-11-19T05:51:44;98046.38;;;10.87;100.00
21824;BME280;11074;48.596;9.238;2023-11-19T05:54:11;98046.91;;;10.89;100.00
21824;BME280;11074;48.596;9.238;2023-11-19T05:56:38;98047.19;;;10.88;100.00
21824;BME280;11074;48.596;9.238;2023-11-19T05:59:04;98050.66;;;10.88;100.00
21824;BME280;11074;48.596;9.238;2023-11-19T06:01:34;98051.47;;;10.89;100.00
21824;BME280;11074;48.596;9.238;2023-11-19T06:04:00;98049.88;;;10.88;100.00
21824;BME280;11074;48.596;9.238;2023-11-19T06:06:27;98050.41;;;10.90;100.00
21824;BME280;11074;48.596;9.238;2023-11-19T06:08:53;98054.94;;;10.89;100.00
21824;BME280;11074;48.596;9.238;2023-11-19T06:11:19;98066.47;;;10.95;100.00
21824;BME280;11074;48.596;9.238;2023-11-19T06:13:46;98065.47;;;11.01;100.00
21824;BME280;11074;48.596;9.238;2023-11-19T06:16:14;98052.59;;;10.98;100.00
21824;BME280;11074;48.596;9.238;2023-11-19T06:18:40;98058.78;;;11.04;100.00
21824;BME280;11074;48.596;9.238;2023-11-19T06:21:07;98060.94;;;11.02;100.00
21824;BME280;11074;48.596;9.238;2023-11-19T06:23:32;98055.59;;;11.07;100.00
21824;BME280;11074;48.596;9.238;2023-11-19T06:25:58;98064.16;;;11.04;100.00
21824;BME280;11074;48.596;9.238;2023-11-19T06:28:27;98061.47;;;11.04;100.00
21824;BME280;11074;48.596;9.238;2023-11-19T06:30:53;98067.09;;;11.07;100.00
21824;BME280;11074;48.596;9.238;2023-11-19T06:33:18;98060.38;;;11.05;100.00
21824;BME280;11074;48.596;9.238;2023-11-19T06:35:44;98066.03;;;11.08;100.00
21824;BME280;11074;48.596;9.238;2023-11-19T06:38:10;98069.00;;;11.07;100.00
21824;BME280;11074;48.596;9.238;2023-11-19T06:40:36;98072.19;;;11.09;100.00
21824;BME280;11074;48.596;9.238;2023-11-19T06:43:03;98065.53;;;11.11;100.00
21824;BME280;11074;48.596;9.238;2023-11-19T06:45:29;98058.31;;;11.12;100.00
21824;BME280;11074;48.596;9.238;2023-11-19T06:47:55;98065.00;;;11.09;100.00
21824;BME280;11074;48.596;9.238;2023-11-19T06:50:21;98066.59;;;11.10;100.00
21824;BME280;11074;48.596;9.238;2023-11-19T06:52:47;98070.63;;;11.18;100.00
21824;BME280;11074;48.596;9.238;2023-11-19T06:55:13;98080.00;;;11.15;100.00
21824;BME280;11074;48.596;9.238;2023-11-19T06:57:38;98067.41;;;11.16;100.00
21824;BME280;11074;48.596;9.238;2023-11-19T07:00:06;98075.47;;;11.21;100.00
21824;BME280;11074;48.596;9.238;2023-11-19T07:02:32;98082.16;;;11.18;100.00
21824;BME280;11074;48.596;9.238;2023-11-19T07:04:58;98085.13;;;11.22;100.00
21824;BME280;11074;48.596;9.238;2023-11-19T07:07:24;98086.19;;;11.21;100.00
21824;BME280;11074;48.596;9.238;2023-11-19T07:09:49;98088.38;;;11.29;100.00
21824;BME280;11074;48.596;9.238;2023-11-19T07:12:15;98084.94;;;11.33;100.00
21824;BME280;11074;48.596;9.238;2023-11-19T07:14:41;98078.25;;;11.31;100.00
21824;BME280;11074;48.596;9.238;2023-11-19T07:17:08;98090.03;;;11.35;100.00
21824;BME280;11074;48.596;9.238;2023-11-19T07:19:35;98078.53;;;11.39;100.00
21824;BME280;11074;48.596;9.238;2023-11-19T07:22:02;98073.69;;;11.36;100.00
21824;BME280;11074;48.596;9.238;2023-11-19T07:24:28;98075.88;;;11.44;100.00
21824;BME280;11074;48.596;9.238;2023-11-19T07:26:54;98090.63;;;11.47;100.00
21824;BME280;11074;48.596;9.238;2023-11-19T07:29:20;98095.72;;;11.48;100.00
21824;BME280;11074;48.596;9.238;2023-11-19T07:31:49;98103.28;;;11.56;100.00
21824;BME280;11074;48.596;9.238;2023-11-19T07:34:15;98112.63;;;11.54;100.00
21824;BME280;11074;48.596;9.238;2023-11-19T07:36:40;98106.75;;;11.52;100.00
21824;BME280;11074;48.596;9.238;2023-11-19T07:39:07;98104.31;;;11.50;100.00
21824;BME280;11074;48.596;9.238;2023-11-19T07:41:34;98100.63;;;11.62;100.00
21824;BME280;11074;48.596;9.238;2023-11-19T07:44:00;98096.59;;;11.59;100.00
21824;BME280;11074;48.596;9.238;2023-11-19T07:46:26;98100.09;;;11.65;100.00
21824;BME280;11074;48.596;9.238;2023-11-19T07:48:52;98103.59;;;11.65;100.00
21824;BME280;11074;48.596;9.238;2023-11-19T07:51:18;98103.38;;;11.72;100.00
21824;BME280;11074;48.596;9.238;2023-11-19T07:53:44;98106.06;;;11.72;100.00
21824;BME280;11074;48.596;9.238;2023-11-19T07:56:10;98107.69;;;11.73;100.00
21824;BME280;11074;48.596;9.238;2023-11-19T07:58:36;98107.97;;;11.76;100.00
21824;BME280;11074;48.596;9.238;2023-11-19T08:01:03;98107.69;;;11.73;100.00
21824;BME280;11074;48.596;9.238;2023-11-19T08:03:31;98110.06;;;11.74;100.00
21824;BME280;11074;48.596;9.238;2023-11-19T08:05:57;98114.38;;;11.75;100.00
21824;BME280;11074;48.596;9.238;2023-11-19T08:08:23;98103.16;;;11.78;100.00
21824;BME280;11074;48.596;9.238;2023-11-19T08:10:48;98088.94;;;11.78;100.00
21824;BME280;11074;48.596;9.238;2023-11-19T08:13:14;98098.34;;;11.80;100.00
21824;BME280;11074;48.596;9.238;2023-11-19T08:15:40;98091.09;;;11.81;100.00
21824;BME280;11074;48.596;9.238;2023-11-19T08:18:06;98085.22;;;11.84;100.00
21824;BME280;11074;48.596;9.238;2023-11-19T08:20:33;98084.97;;;11.85;100.00
21824;BME280;11074;48.596;9.238;2023-11-19T08:22:59;98076.41;;;11.88;100.00
21824;BME280;11074;48.596;9.238;2023-11-19T08:25:25;98070.78;;;11.90;100.00
21824;BME280;11074;48.596;9.238;2023-11-19T08:27:51;98075.38;;;11.94;100.00
21824;BME280;11074;48.596;9.238;2023-11-19T08:30:16;98078.06;;;12.04;100.00
21824;BME280;11074;48.596;9.238;2023-11-19T08:32:42;98079.41;;;12.07;100.00
21824;BME280;11074;48.596;9.238;2023-11-19T08:35:08;98070.56;;;12.06;100.00
21824;BME280;11074;48.596;9.238;2023-11-19T08:37:34;98081.06;;;12.13;100.00
21824;BME280;11074;48.596;9.238;2023-11-19T08:40:02;98066.81;;;12.07;100.00
21824;BME280;11074;48.596;9.238;2023-11-19T08:42:30;98087.75;;;12.15;100.00
21824;BME280;11074;48.596;9.238;2023-11-19T08:44:55;98086.94;;;12.20;100.00
21824;BME280;11074;48.596;9.238;2023-11-19T08:47:21;98085.38;;;12.24;100.00
21824;BME280;11074;48.596;9.238;2023-11-19T08:49:50;98086.44;;;12.28;100.00
21824;BME280;11074;48.596;9.238;2023-11-19T08:52:17;98095.81;;;12.31;100.00
21824;BME280;11074;48.596;9.238;2023-11-19T08:54:43;98092.34;;;12.40;100.00
21824;BME280;11074;48.596;9.238;2023-11-19T08:57:09;98081.91;;;12.49;100.00
21824;BME280;11074;48.596;9.238;2023-11-19T08:59:35;98094.78;;;12.57;100.00
21824;BME280;11074;48.596;9.238;2023-11-19T09:02:04;98075.78;;;12.53;100.00
21824;BME280;11074;48.596;9.238;2023-11-19T09:04:31;98086.22;;;12.65;100.00
21824;BME280;11074;48.596;9.238;2023-11-19T09:07:00;98084.06;;;12.67;100.00
21824;BME280;11074;48.596;9.238;2023-11-19T09:09:26;98087.31;;;12.69;100.00
21824;BME280;11074;48.596;9.238;2023-11-19T09:11:51;98086.50;;;12.63;100.00
21824;BME280;11074;48.596;9.238;2023-11-19T09:14:17;98091.06;;;12.63;100.00
21824;BME280;11074;48.596;9.238;2023-11-19T09:16:43;98102.59;;;12.73;100.00
21824;BME280;11074;48.596;9.238;2023-11-19T09:19:09;98091.06;;;12.83;100.00
21824;BME280;11074;48.596;9.238;2023-11-19T09:21:35;98096.97;;;12.90;100.00
21824;BME280;11074;48.596;9.238;2023-11-19T09:24:04;98111.22;;;12.91;100.00
21824;BME280;11074;48.596;9.238;2023-11-19T09:26:30;98113.31;;;12.94;100.00
21824;BME280;11074;48.596;9.238;2023-11-19T09:28:56;98117.91;;;13.03;100.00
21824;BME280;11074;48.596;9.238;2023-11-19T09:31:22;98123.56;;;13.07;100.00
21824;BME280;11074;48.596;9.238;2023-11-19T09:33:48;98115.25;;;13.08;100.00
21824;BME280;11074;48.596;9.238;2023-11-19T09:36:13;98108.00;;;13.09;100.00
21824;BME280;11074;48.596;9.238;2023-11-19T09:38:45;98115.25;;;13.18;100.00
21824;BME280;11074;48.596;9.238;2023-11-19T09:41:11;98113.63;;;13.17;100.00
21824;BME280;11074;48.596;9.238;2023-11-19T09:43:42;98116.59;;;13.16;100.00
21824;BME280;11074;48.596;9.238;2023-11-19T09:46:10;98124.13;;;13.14;100.00
21824;BME280;11074;48.596;9.238;2023-11-19T09:48:39;98104.78;;;13.12;100.00
21824;BME280;11074;48.596;9.238;2023-11-19T09:51:10;98102.66;;;13.09;100.00
21824;BME280;11074;48.596;9.238;2023-11-19T09:53:37;98102.09;;;13.07;100.00
21824;BME280;11074;48.596;9.238;2023-11-19T09:56:05;98108.25;;;13.07;100.00
21824;BME280;11074;48.596;9.238;2023-11-19T09:58:32;98108.81;;;13.14;100.00
21824;BME280;11074;48.596;9.238;2023-11-19T10:00:59;98103.97;;;13.16;100.00
21824;BME280;11074;48.596;9.238;2023-11-19T10:03:33;98099.41;;;13.17;100.00
21824;BME280;11074;48.596;9.238;2023-11-19T10:06:06;98107.72;;;13.15;100.00
21824;BME280;11074;48.596;9.238;2023-11-19T10:08:32;98105.59;;;13.22;100.00
21824;BME280;11074;48.596;9.238;2023-11-19T10:10:58;98090.53;;;13.26;100.00
21824;BME280;11074;48.596;9.238;2023-11-19T10:13:28;98076.28;;;13.41;100.00
21824;BME280;11074;48.596;9.238;2023-11-19T10:15:56;98076.56;;;13.34;100.00
21824;BME280;11074;48.596;9.238;2023-11-19T10:18:26;98084.59;;;13.40;100.00
21824;BME280;11074;48.596;9.238;2023-11-19T10:20:53;98089.94;;;13.55;100.00
21824;BME280;11074;48.596;9.238;2023-11-19T10:23:19;98089.94;;;13.60;100.00
21824;BME280;11074;48.596;9.238;2023-11-19T10:25:44;98092.84;;;13.68;100.00
21824;BME280;11074;48.596;9.238;2023-11-19T10:28:10;98090.94;;;13.74;100.00
21824;BME280;11074;48.596;9.238;2023-11-19T10:30:36;98085.59;;;13.69;100.00
21824;BME280;11074;48.596;9.238;2023-11-19T10:33:11;98080.25;;;13.64;100.00
21824;BME280;11074;48.596;9.238;2023-11-19T10:35:53;98086.69;;;13.68;100.00
21824;BME280;11074;48.596;9.238;2023-11-19T10:38:19;98076.47;;;13.70;100.00
21824;BME280;11074;48.596;9.238;2023-11-19T10:40:46;98073.78;;;13.70;100.00
21824;BME280;11074;48.596;9.238;2023-11-19T10:43:12;98074.03;;;13.73;100.00
21824;BME280;11074;48.596;9.238;2023-11-19T10:45:40;98075.34;;;13.86;100.00
21824;BME280;11074;48.596;9.238;2023-11-19T10:48:06;98073.69;;;13.90;100.00
21824;BME280;11074;48.596;9.238;2023-11-19T10:50:37;98064.59;;;13.86;100.00
21824;BME280;11074;48.596;9.238;2023-11-19T10:53:04;98058.97;;;13.77;100.00
21824;BME280;11074;48.596;9.238;2023-11-19T10:55:34;98060.34;;;13.75;100.00
21824;BME280;11074;48.596;9.238;2023-11-19T10:58:08;98059.25;;;13.71;100.00
21824;BME280;11074;48.596;9.238;2023-11-19T11:00:51;98053.63;;;13.72;100.00
21824;BME280;11074;48.596;9.238;2023-11-19T11:03:24;98050.09;;;13.77;100.00
21824;BME280;11074;48.596;9.238;2023-11-19T11:05:52;98051.13;;;13.91;100.00
21824;BME280;11074;48.596;9.238;2023-11-19T11:08:19;98036.31;;;13.98;100.00
21824;BME280;11074;48.596;9.238;2023-11-19T11:10:56;98046.22;;;14.03;100.00
21824;BME280;11074;48.596;9.238;2023-11-19T11:13:24;98048.09;;;14.08;100.00
21824;BME280;11074;48.596;9.238;2023-11-19T11:15:51;98048.09;;;14.08;100.00
21824;BME280;11074;48.596;9.238;2023-11-19T11:18:17;98038.09;;;14.13;100.00
21824;BME280;11074;48.596;9.238;2023-11-19T11:20:47;98042.44;;;14.09;100.00
21824;BME280;11074;48.596;9.238;2023-11-19T11:23:25;98044.00;;;14.15;100.00
21824;BME280;11074;48.596;9.238;2023-11-19T11:28:59;98055.50;;;14.26;99.73
21824;BME280;11074;48.596;9.238;2023-11-19T11:39:46;98054.16;;;14.33;97.12
21824;BME280;11074;48.596;9.238;2023-11-19T11:45:05;98060.47;;;14.52;97.12
21824;BME280;11074;48.596;9.238;2023-11-19T11:50:15;98055.22;;;14.71;96.78
21824;BME280;11074;48.596;9.238;2023-11-19T11:55:36;98039.59;;;14.73;95.43
21824;BME280;11074;48.596;9.238;2023-11-19T11:58:11;98042.00;;;14.75;95.01
21824;BME280;11074;48.596;9.238;2023-11-19T12:00:41;98039.81;;;14.82;93.98
21824;BME280;11074;48.596;9.238;2023-11-19T12:03:08;98050.31;;;14.78;92.86
21824;BME280;11074;48.596;9.238;2023-11-19T12:05:41;98044.38;;;14.81;92.96
21824;BME280;11074;48.596;9.238;2023-11-19T12:08:07;98049.34;;;14.98;93.12
21824;BME280;11074;48.596;9.238;2023-11-19T12:10:48;98033.72;;;15.00;93.00
21824;BME280;11074;48.596;9.238;2023-11-19T12:13:15;98042.06;;;14.98;92.24
21824;BME280;11074;48.596;9.238;2023-11-19T12:18:28;98031.78;;;14.77;93.30
21824;BME280;11074;48.596;9.238;2023-11-19T12:20:55;98031.28;;;14.70;93.46
21824;BME280;11074;48.596;9.238;2023-11-19T12:23:25;98042.75;;;14.80;94.01
21824;BME280;11074;48.596;9.238;2023-11-19T12:25:51;98027.97;;;14.78;94.93
21824;BME280;11074;48.596;9.238;2023-11-19T12:28:17;98021.56;;;14.74;93.92
21824;BME280;11074;48.596;9.238;2023-11-19T12:30:43;98020.47;;;14.75;94.21
21824;BME280;11074;48.596;9.238;2023-11-19T12:33:14;98024.81;;;14.71;93.15
21824;BME280;11074;48.596;9.238;2023-11-19T12:35:49;98006.53;;;14.68;93.52
21824;BME280;11074;48.596;9.238;2023-11-19T12:38:25;98017.50;;;14.76;92.94
21824;BME280;11074;48.596;9.238;2023-11-19T12:41:11;98018.53;;;14.80;92.24
21824;BME280;11074;48.596;9.238;2023-11-19T12:43:39;98020.00;;;14.96;91.96
21824;BME280;11074;48.596;9.238;2023-11-19T12:46:22;98022.09;;;15.04;90.72
21824;BME280;11074;48.596;9.238;2023-11-19T12:48:50;98009.38;;;15.10;90.12
21824;BME280;11074;48.596;9.238;2023-11-19T12:51:16;98023.28;;;15.22;89.84
21824;BME280;11074;48.596;9.238;2023-11-19T12:53:51;98010.94;;;15.40;88.94
21824;BME280;11074;48.596;9.238;2023-11-19T12:56:21;98008.03;;;15.60;87.70
21824;BME280;11074;48.596;9.238;2023-11-19T12:58:47;98003.81;;;15.54;87.40
21824;BME280;11074;48.596;9.238;2023-11-19T13:01:20;97993.16;;;15.39;88.37
21824;BME280;11074;48.596;9.238;2023-11-19T13:03:47;97987.78;;;15.39;88.73
21824;BME280;11074;48.596;9.238;2023-11-19T13:06:15;97979.88;;;15.24;89.15
21824;BME280;11074;48.596;9.238;2023-11-19T13:08:49;97988.28;;;15.17;89.26
21824;BME280;11074;48.596;9.238;2023-11-19T13:11:31;97992.16;;;15.11;88.83
21824;BME280;11074;48.596;9.238;2023-11-19T13:14:00;97982.22;;;15.06;88.85
21824;BME280;11074;48.596;9.238;2023-11-19T13:16:27;97980.69;;;15.00;88.64